Time,TemperatureF,DewpointF,PressureIn,WindDirection,WindDirectionDegrees,WindSpeedMPH,WindSpeedGustMPH,Humidity,HourlyPrecipIn,Conditions,Clouds,dailyrainin,SoftwareType,DateUTC
2013-10-05 00:12:00,33.0,24.0,30.31,West,279,3.0,6.0,68,0.00,,,0.08,,2013-10-05 06:12:00,
2013-10-05 00:22:00,33.0,24.0,30.32,West,279,4.0,6.0,69,0.00,,,0.08,,2013-10-05 06:22:00,
2013-10-05 00:52:00,33.0,24.0,30.32,West,279,3.0,4.0,69,0.00,,,0.08,,2013-10-05 06:52:00,
2013-10-05 01:22:00,32.0,24.0,30.32,West,278,3.0,5.0,71,0.00,,,0.08,,2013-10-05 07:22:00,
2013-10-05 01:52:00,33.0,21.0,30.32,West,279,3.0,5.0,61,0.00,,,0.08,,2013-10-05 07:52:00,
2013-10-05 02:12:00,33.0,21.0,30.32,West,279,3.0,5.0,61,0.00,,,0.08,,2013-10-05 08:12:00,
2013-10-05 02:22:00,34.0,21.0,30.33,West,279,3.0,5.0,58,0.00,,,0.08,,2013-10-05 08:22:00,
2013-10-05 02:52:00,33.0,20.0,30.33,West,279,1.0,3.0,59,0.00,,,0.08,,2013-10-05 08:52:00,
2013-10-05 03:21:00,34.0,19.0,30.33,West,279,2.0,3.0,53,0.00,,,0.08,,2013-10-05 09:21:00,
2013-10-05 03:54:00,35.0,19.0,30.33,West,279,4.0,5.0,52,0.00,,,0.08,,2013-10-05 09:54:00,
2013-10-05 04:23:00,35.0,19.0,30.33,West,279,2.0,4.0,52,0.00,,,0.08,,2013-10-05 10:23:00,
2013-10-05 04:53:00,34.0,19.0,30.33,West,279,0.0,0.0,54,0.00,,,0.08,,2013-10-05 10:53:00,
2013-10-05 05:22:00,34.0,19.0,30.34,West,279,0.0,0.0,54,0.00,,,0.08,,2013-10-05 11:22:00,
2013-10-05 05:52:00,34.0,19.0,30.34,West,279,0.0,2.0,54,0.00,,,0.08,,2013-10-05 11:52:00,
2013-10-05 06:12:00,34.0,19.0,30.34,West,279,0.0,0.0,54,0.00,,,0.08,,2013-10-05 12:12:00,
2013-10-05 06:22:00,33.0,19.0,30.35,West,279,1.0,3.0,56,0.00,,,0.08,,2013-10-05 12:22:00,
2013-10-05 06:52:00,33.0,21.0,30.34,West,279,2.0,3.0,61,0.00,,,0.08,,2013-10-05 12:52:00,
2013-10-05 07:42:00,34.0,21.0,30.35,West,279,0.0,1.0,59,0.00,,,0.08,,2013-10-05 13:42:00,
2013-10-05 08:42:00,33.0,21.0,30.35,SW,229,3.0,5.0,62,0.00,,,0.08,,2013-10-05 14:42:00,
2013-10-05 08:52:00,33.0,21.0,30.35,SW,229,2.0,5.0,62,0.00,,,0.08,,2013-10-05 14:52:00,
2013-10-05 09:53:00,38.0,24.0,30.37,SW,229,1.0,4.0,57,0.00,,,0.08,,2013-10-05 15:53:00,
2013-10-05 10:23:00,39.0,24.0,30.38,SSW,200,6.0,9.0,54,0.00,,,0.08,,2013-10-05 16:23:00,
2013-10-05 10:43:00,39.0,24.0,30.38,WSW,254,6.0,12.0,55,0.00,,,0.08,,2013-10-05 16:43:00,
2013-10-05 10:53:00,40.0,25.0,30.38,WSW,251,7.0,13.0,54,0.00,,,0.07,,2013-10-05 16:53:00,
2013-10-05 11:22:00,40.0,24.0,30.38,West,266,9.0,13.0,52,0.00,,,0.07,,2013-10-05 17:22:00,
2013-10-05 11:42:00,41.0,24.0,30.39,SW,215,7.0,14.0,51,0.00,,,0.07,,2013-10-05 17:42:00,
2013-10-05 11:52:00,42.0,24.0,30.39,West,261,9.0,14.0,49,0.00,,,0.06,,2013-10-05 17:52:00,
2013-10-05 12:12:00,42.0,25.0,30.38,SW,217,8.0,12.0,50,0.00,,,0.06,,2013-10-05 18:12:00,
2013-10-05 12:21:00,43.0,25.0,30.38,West,263,6.0,13.0,49,0.00,,,0.06,,2013-10-05 18:21:00,
2013-10-05 12:42:00,43.0,25.0,30.38,West,271,9.0,14.0,48,0.00,,,0.06,,2013-10-05 18:42:00,
2013-10-05 12:52:00,42.0,22.0,30.38,West,263,9.0,16.0,45,0.00,,,0.03,,2013-10-05 18:52:00,
2013-10-05 13:22:00,44.0,26.0,30.38,WSW,246,7.0,13.0,49,0.00,,,0.03,,2013-10-05 19:22:00,
2013-10-05 13:42:00,45.0,25.0,30.37,WSW,239,7.0,12.0,45,0.00,,,0.03,,2013-10-05 19:42:00,
2013-10-05 13:52:00,45.0,25.0,30.37,SW,234,7.0,14.0,46,0.00,,,0.01,,2013-10-05 19:52:00,
2013-10-05 14:22:00,44.0,26.0,30.36,WSW,251,6.0,13.0,48,0.00,,,0.01,,2013-10-05 20:22:00,
2013-10-05 14:42:00,46.0,25.0,30.35,WSW,244,8.0,15.0,44,0.00,,,0.01,,2013-10-05 20:42:00,
2013-10-05 14:52:00,47.0,26.0,30.36,West,274,10.0,16.0,44,0.00,,,0.00,,2013-10-05 20:52:00,
2013-10-05 15:21:00,48.0,22.0,30.35,West,259,9.0,14.0,36,0.00,,,0.00,,2013-10-05 21:21:00,
2013-10-05 15:43:00,47.0,21.0,30.35,West,265,8.0,15.0,36,0.00,,,0.00,,2013-10-05 21:43:00,
2013-10-05 15:54:00,48.0,22.0,30.35,SW,223,9.0,14.0,36,0.00,,,0.00,,2013-10-05 21:54:00,
2013-10-05 16:24:00,48.0,22.0,30.34,WSW,242,9.0,13.0,35,0.00,,,0.00,,2013-10-05 22:24:00,
2013-10-05 16:42:00,49.0,24.0,30.34,WSW,258,6.0,13.0,37,0.00,,,0.00,,2013-10-05 22:42:00,
2013-10-05 16:53:00,50.0,23.0,30.34,West,261,5.0,11.0,35,0.00,,,0.00,,2013-10-05 22:53:00,
2013-10-05 17:22:00,49.0,23.0,30.35,WSW,238,5.0,12.0,35,0.00,,,0.00,,2013-10-05 23:22:00,
2013-10-05 17:53:00,49.0,23.0,30.35,SW,227,6.0,10.0,36,0.00,,,0.00,,2013-10-05 23:53:00,
2013-10-05 18:12:00,49.0,23.0,30.35,West,263,6.0,9.0,36,0.00,,,0.00,,2013-10-06 00:12:00,
2013-10-05 18:22:00,48.0,22.0,30.35,West,277,7.0,9.0,36,0.00,,,0.00,,2013-10-06 00:22:00,
2013-10-05 18:43:00,48.0,23.0,30.34,West,277,5.0,8.0,37,0.00,,,0.00,,2013-10-06 00:43:00,
2013-10-05 18:52:00,47.0,23.0,30.35,West,267,5.0,7.0,38,0.00,,,0.00,,2013-10-06 00:52:00,
2013-10-05 19:22:00,46.0,23.0,30.34,WSW,250,2.0,4.0,40,0.00,,,0.00,,2013-10-06 01:22:00,
2013-10-05 19:42:00,45.0,23.0,30.34,WSW,250,0.0,1.0,41,0.00,,,0.00,,2013-10-06 01:42:00,
2013-10-05 19:52:00,44.0,22.0,30.35,WSW,249,2.0,3.0,42,0.00,,,0.00,,2013-10-06 01:52:00,
2013-10-05 20:21:00,42.0,22.0,30.35,WSW,250,0.0,2.0,45,0.00,,,0.00,,2013-10-06 02:21:00,
2013-10-05 20:42:00,43.0,23.0,30.35,WSW,250,0.0,1.0,45,0.00,,,0.00,,2013-10-06 02:42:00,
2013-10-05 20:52:00,43.0,23.0,30.35,WSW,250,0.0,0.0,44,0.00,,,0.00,,2013-10-06 02:52:00,
2013-10-05 21:22:00,43.0,22.0,30.35,WSW,250,0.0,0.0,43,0.00,,,0.00,,2013-10-06 03:22:00,
2013-10-05 21:44:00,43.0,22.0,30.35,WSW,250,0.0,0.0,42,0.00,,,0.00,,2013-10-06 03:44:00,
2013-10-05 21:54:00,44.0,22.0,30.35,WSW,250,0.0,0.0,41,0.00,,,0.00,,2013-10-06 03:54:00,
2013-10-05 22:23:00,42.0,22.0,30.36,WSW,250,2.0,3.0,45,0.00,,,0.00,,2013-10-06 04:23:00,
2013-10-05 22:43:00,42.0,22.0,30.36,NW,322,1.0,3.0,44,0.00,,,0.00,,2013-10-06 04:43:00,
2013-10-05 22:54:00,43.0,22.0,30.36,NNW,331,3.0,4.0,43,0.00,,,0.00,,2013-10-06 04:54:00,
2013-10-05 23:22:00,43.0,22.0,30.36,NNE,28,3.0,4.0,43,0.00,,,0.00,,2013-10-06 05:22:00,
2013-10-05 23:52:00,43.0,21.0,30.36,NNE,28,1.0,3.0,41,0.00,,,0.00,,2013-10-06 05:52:00,